Time;durP1;ratioP1;P1;durP2;ratioP2;P2;SDS_P1;SDS_P2;PMS_P1;PMS_P2;Temp;Humidity;BMP_temperature;BMP_pressure;BME280_temperature;BME280_humidity;BME280_pressure;Samples;Min_cycle;Max_cycle;Signal;HPM_P1;HPM_P2
2023/01/07 00:01:19;;;;;;;;;;;10.90;99.90;;;;;;8392466;28;19925;-68
2023/01/07 00:05:21;;;;;;;;;;;10.90;99.90;;;;;;8381416;28;19931;-68
2023/01/07 00:09:22;;;;;;;;;;;10.90;99.90;;;;;;8387216;28;20376;-68
2023/01/07 00:13:24;;;;;;;;;;;10.90;99.90;;;;;;8369266;28;19971;-69
2023/01/07 00:17:25;;;;;;;;;;;10.90;99.90;;;;;;8395266;28;20286;-69
2023/01/07 00:21:27;;;;;;;;;;;10.90;99.90;;;;;;8369113;28;19924;-68
2023/01/07 00:25:29;;;;;;;;;;;10.80;99.90;;;;;;8388157;28;19978;-69
2023/01/07 00:29:31;;;;;;;;;;;10.80;99.90;;;;;;8397547;28;19986;-69
2023/01/07 00:33:38;;;;;;;;;;;10.80;99.90;;;;;;8391335;28;19932;-69
2023/01/07 00:37:49;;;;;;;;;;;10.80;99.90;;;;;;8378825;28;19924;-69
2023/01/07 00:46:12;;;;;;;;;;;10.80;99.90;;;;;;8385454;28;20455;-69
2023/01/07 00:50:14;;;;;;;;;;;10.80;99.90;;;;;;8388802;28;19932;-69
2023/01/07 00:54:15;;;;;;;;;;;10.80;99.90;;;;;;8384178;28;20388;-68
2023/01/07 00:58:21;;;;;;;;;;;10.70;99.90;;;;;;8388266;28;19935;-69
2023/01/07 01:02:22;;;;;;;;;;;10.80;99.90;;;;;;8373584;28;19925;-69
2023/01/07 01:06:24;;;;;;;;;;;10.70;99.90;;;;;;8394660;28;19928;-69
2023/01/07 01:10:27;;;;;;;;;;;10.70;99.90;;;;;;8394988;28;19931;-69
2023/01/07 01:14:28;;;;;;;;;;;10.70;99.90;;;;;;8394695;28;19933;-69
2023/01/07 01:18:30;;;;;;;;;;;10.70;99.90;;;;;;8392646;28;19931;-68
2023/01/07 01:22:32;;;;;;;;;;;10.70;99.90;;;;;;8380734;28;19932;-69
2023/01/07 01:26:33;;;;;;;;;;;10.70;99.90;;;;;;8375639;28;19931;-69
2023/01/07 01:30:35;;;;;;;;;;;10.60;99.90;;;;;;8384720;28;19983;-69
2023/01/07 01:34:37;;;;;;;;;;;10.70;99.90;;;;;;8382509;28;19963;-69
2023/01/07 01:38:38;;;;;;;;;;;10.70;99.90;;;;;;8395974;28;19939;-69
2023/01/07 01:42:40;;;;;;;;;;;10.70;99.90;;;;;;8391157;28;20391;-69
2023/01/07 01:46:43;;;;;;;;;;;10.70;99.90;;;;;;8372178;28;20000;-69
2023/01/07 01:50:46;;;;;;;;;;;10.70;99.90;;;;;;8394779;28;19925;-69
2023/01/07 01:54:50;;;;;;;;;;;10.70;99.90;;;;;;8377586;28;19925;-69
2023/01/07 01:59:01;;;;;;;;;;;10.80;99.90;;;;;;8386451;28;19925;-69
2023/01/07 02:03:04;;;;;;;;;;;10.80;99.90;;;;;;8382490;28;19931;-69
2023/01/07 02:07:09;;;;;;;;;;;10.80;99.90;;;;;;8364430;28;19935;-69
2023/01/07 02:11:15;;;;;;;;;;;10.80;99.90;;;;;;8392930;28;19924;-69
2023/01/07 02:15:22;;;;;;;;;;;10.80;99.90;;;;;;8392753;28;20356;-69
2023/01/07 02:19:26;;;;;;;;;;;10.80;99.90;;;;;;8380907;28;20380;-69
2023/01/07 02:23:47;;;;;;;;;;;10.80;99.90;;;;;;8393695;28;20028;-69
2023/01/07 02:27:59;;;;;;;;;;;10.90;99.90;;;;;;8389662;28;19971;-69
2023/01/07 02:32:06;;;;;;;;;;;10.90;99.90;;;;;;8384793;28;20376;-69
2023/01/07 02:36:14;;;;;;;;;;;10.90;99.90;;;;;;8385929;28;20436;-69
2023/01/07 02:40:22;;;;;;;;;;;10.90;99.90;;;;;;8375911;28;19931;-69
2023/01/07 02:44:43;;;;;;;;;;;10.90;99.90;;;;;;8363867;28;19929;-69
2023/01/07 02:48:44;;;;;;;;;;;10.80;99.90;;;;;;8393170;28;20277;-69
2023/01/07 02:52:46;;;;;;;;;;;10.80;99.90;;;;;;8387688;28;19932;-69
2023/01/07 02:56:48;;;;;;;;;;;10.80;99.90;;;;;;8382204;28;20001;-69
2023/01/07 03:01:08;;;;;;;;;;;10.70;99.90;;;;;;8385755;28;19976;-69
2023/01/07 03:05:10;;;;;;;;;;;10.70;99.90;;;;;;8388401;28;20414;-69
2023/01/07 03:09:11;;;;;;;;;;;10.60;99.90;;;;;;8370835;28;19928;-69
2023/01/07 03:13:15;;;;;;;;;;;10.50;99.90;;;;;;8370223;28;19928;-69
2023/01/07 03:17:19;;;;;;;;;;;10.50;99.90;;;;;;8377778;28;19952;-69
2023/01/07 03:21:22;;;;;;;;;;;10.50;99.90;;;;;;8378177;28;20362;-69
2023/01/07 03:25:25;;;;;;;;;;;10.50;99.90;;;;;;8372565;28;20303;-69
2023/01/07 03:29:27;;;;;;;;;;;10.50;99.90;;;;;;8373327;28;19924;-69
2023/01/07 03:33:41;;;;;;;;;;;10.40;99.90;;;;;;8389404;28;19932;-69
2023/01/07 03:37:44;;;;;;;;;;;10.40;99.90;;;;;;8385358;28;19967;-69
2023/01/07 03:46:08;;;;;;;;;;;10.30;99.90;;;;;;8380946;28;19928;-69
2023/01/07 03:50:09;;;;;;;;;;;10.20;99.90;;;;;;8383050;28;19924;-69
2023/01/07 03:54:11;;;;;;;;;;;10.20;99.90;;;;;;8386108;28;19983;-69
2023/01/07 03:58:13;;;;;;;;;;;10.20;99.90;;;;;;8396213;28;19969;-69
2023/01/07 04:02:14;;;;;;;;;;;10.20;99.90;;;;;;8386214;28;19932;-69
2023/01/07 04:06:16;;;;;;;;;;;10.20;99.90;;;;;;8389776;28;19931;-69
2023/01/07 04:10:17;;;;;;;;;;;10.10;99.90;;;;;;8391892;28;19925;-69
2023/01/07 04:14:19;;;;;;;;;;;10.10;99.90;;;;;;8394444;28;19924;-69
2023/01/07 04:18:21;;;;;;;;;;;10.10;99.90;;;;;;8396672;28;20291;-69
2023/01/07 04:22:22;;;;;;;;;;;10.10;99.90;;;;;;8390827;28;19978;-69
2023/01/07 04:26:24;;;;;;;;;;;10.10;99.90;;;;;;8390392;28;19924;-69
2023/01/07 04:30:25;;;;;;;;;;;10.10;99.90;;;;;;8389153;28;20046;-69
2023/01/07 04:34:27;;;;;;;;;;;10.10;99.90;;;;;;8390202;28;19924;-69
2023/01/07 04:43:34;;;;;;;;;;;10.10;99.90;;;;;;8384394;28;19928;-69
2023/01/07 04:47:35;;;;;;;;;;;10.10;99.90;;;;;;8396001;28;19928;-69
2023/01/07 04:51:37;;;;;;;;;;;10.10;99.90;;;;;;8388760;28;19971;-69
2023/01/07 04:55:39;;;;;;;;;;;10.10;99.90;;;;;;8390494;28;20284;-69
2023/01/07 04:59:40;;;;;;;;;;;10.10;99.90;;;;;;8385307;28;20418;-69
2023/01/07 05:03:42;;;;;;;;;;;10.20;99.90;;;;;;8387891;28;19925;-69
2023/01/07 05:07:43;;;;;;;;;;;10.20;99.90;;;;;;8384857;28;19964;-69
2023/01/07 05:11:45;;;;;;;;;;;10.20;99.90;;;;;;8370969;28;19967;-69
2023/01/07 05:15:47;;;;;;;;;;;10.20;99.90;;;;;;8388626;28;19929;-69
2023/01/07 05:19:48;;;;;;;;;;;10.20;99.90;;;;;;8391941;28;20016;-69
2023/01/07 05:23:50;;;;;;;;;;;10.20;99.90;;;;;;8387215;28;20283;-69
2023/01/07 05:27:52;;;;;;;;;;;10.20;99.90;;;;;;8394469;28;19932;-69
2023/01/07 05:31:53;;;;;;;;;;;10.20;99.90;;;;;;8387461;28;19971;-69
2023/01/07 05:35:57;;;;;;;;;;;10.20;99.90;;;;;;8381935;28;20405;-69
2023/01/07 05:39:59;;;;;;;;;;;10.20;99.90;;;;;;8391227;28;19928;-69
2023/01/07 05:44:00;;;;;;;;;;;10.20;99.90;;;;;;8367223;28;19948;-69
2023/01/07 05:48:02;;;;;;;;;;;10.20;99.90;;;;;;8385792;28;19974;-69
2023/01/07 05:52:03;;;;;;;;;;;10.30;99.90;;;;;;8389204;28;19931;-69
2023/01/07 05:56:05;;;;;;;;;;;10.30;99.90;;;;;;8394135;28;19939;-69
2023/01/07 06:00:09;;;;;;;;;;;10.30;99.90;;;;;;8378984;28;19931;-69
2023/01/07 06:04:11;;;;;;;;;;;10.30;99.90;;;;;;8366401;28;20376;-69
2023/01/07 06:08:12;;;;;;;;;;;10.30;99.90;;;;;;8386718;28;20287;-69
2023/01/07 06:12:14;;;;;;;;;;;10.30;99.90;;;;;;8398546;28;19925;-69
2023/01/07 06:16:16;;;;;;;;;;;10.30;99.90;;;;;;8363550;28;19980;-69
2023/01/07 06:20:18;;;;;;;;;;;10.40;99.90;;;;;;8385068;28;19924;-69
2023/01/07 06:24:19;;;;;;;;;;;10.40;99.90;;;;;;8380824;28;19931;-69
2023/01/07 06:28:21;;;;;;;;;;;10.40;99.90;;;;;;8372747;28;19987;-69
2023/01/07 06:32:23;;;;;;;;;;;10.40;99.90;;;;;;8386182;28;19924;-69
2023/01/07 06:36:25;;;;;;;;;;;10.40;99.90;;;;;;8369568;28;19931;-69
2023/01/07 06:40:26;;;;;;;;;;;10.40;99.90;;;;;;8371652;28;19931;-69
2023/01/07 06:44:28;;;;;;;;;;;10.40;99.90;;;;;;8386059;28;19931;-69
2023/01/07 06:48:30;;;;;;;;;;;10.40;99.90;;;;;;8388629;28;19937;-69
2023/01/07 06:52:32;;;;;;;;;;;10.40;99.90;;;;;;8403781;28;20384;-69
2023/01/07 06:56:33;;;;;;;;;;;10.30;99.90;;;;;;8372816;28;20300;-69
2023/01/07 07:00:35;;;;;;;;;;;10.30;99.90;;;;;;8386756;28;19929;-69
2023/01/07 07:04:37;;;;;;;;;;;10.30;99.90;;;;;;8400833;28;19983;-69
2023/01/07 07:08:38;;;;;;;;;;;10.20;99.90;;;;;;8381037;28;19925;-69
2023/01/07 07:12:40;;;;;;;;;;;10.20;99.90;;;;;;8382936;28;20032;-69
2023/01/07 07:16:42;;;;;;;;;;;10.20;99.90;;;;;;8366689;28;20279;-69
2023/01/07 07:20:46;;;;;;;;;;;10.20;99.90;;;;;;8394785;28;20300;-69
2023/01/07 07:24:48;;;;;;;;;;;10.20;99.90;;;;;;8391027;28;19925;-69
2023/01/07 07:28:50;;;;;;;;;;;10.20;99.90;;;;;;8386019;28;19924;-69
2023/01/07 07:32:51;;;;;;;;;;;10.20;99.90;;;;;;8383013;28;19971;-69
2023/01/07 07:36:53;;;;;;;;;;;10.20;99.90;;;;;;8395517;28;19924;-69
2023/01/07 07:40:55;;;;;;;;;;;10.20;99.90;;;;;;8393195;28;20303;-69
2023/01/07 07:44:57;;;;;;;;;;;10.20;99.90;;;;;;8391969;28;20395;-69
2023/01/07 07:48:59;;;;;;;;;;;10.10;99.90;;;;;;8378054;28;19925;-69
2023/01/07 07:53:01;;;;;;;;;;;10.20;99.90;;;;;;8387399;28;19932;-69
2023/01/07 07:57:02;;;;;;;;;;;10.20;99.90;;;;;;8388212;28;19924;-68
2023/01/07 08:01:04;;;;;;;;;;;10.20;99.90;;;;;;8389033;28;19932;-69
2023/01/07 08:05:06;;;;;;;;;;;10.30;99.90;;;;;;8384385;28;19929;-69
2023/01/07 08:09:08;;;;;;;;;;;10.30;99.90;;;;;;8389769;28;20395;-69
2023/01/07 08:13:10;;;;;;;;;;;10.30;99.90;;;;;;8366135;28;19978;-69
2023/01/07 08:17:11;;;;;;;;;;;10.30;99.90;;;;;;8385739;28;20011;-70
2023/01/07 08:21:13;;;;;;;;;;;10.30;99.90;;;;;;8390393;28;19982;-69
2023/01/07 08:25:15;;;;;;;;;;;10.40;99.90;;;;;;8382349;28;19967;-69
2023/01/07 08:29:16;;;;;;;;;;;10.40;99.90;;;;;;8382572;28;20388;-69
2023/01/07 08:33:18;;;;;;;;;;;10.40;99.90;;;;;;8377874;28;20359;-69
2023/01/07 08:37:19;;;;;;;;;;;10.40;99.90;;;;;;8387683;28;19925;-69
2023/01/07 08:41:22;;;;;;;;;;;10.50;99.90;;;;;;8382910;28;19925;-69
2023/01/07 08:45:24;;;;;;;;;;;10.50;99.90;;;;;;8391651;28;20391;-69
2023/01/07 08:49:25;;;;;;;;;;;10.50;99.90;;;;;;8384813;28;19931;-69
2023/01/07 08:53:27;;;;;;;;;;;10.50;99.90;;;;;;8390151;28;20275;-69
2023/01/07 08:57:28;;;;;;;;;;;10.60;99.90;;;;;;8390612;28;20377;-69
2023/01/07 09:01:30;;;;;;;;;;;10.60;99.90;;;;;;8367690;28;20367;-69
2023/01/07 09:05:32;;;;;;;;;;;10.60;99.90;;;;;;8387134;28;19929;-69
2023/01/07 09:09:35;;;;;;;;;;;10.60;99.90;;;;;;8391668;28;19995;-69
2023/01/07 09:13:37;;;;;;;;;;;10.60;99.90;;;;;;8388122;28;19933;-69
2023/01/07 09:17:39;;;;;;;;;;;10.60;99.90;;;;;;8377520;28;19924;-69
2023/01/07 09:36:51;;;;;;;;;;;10.70;99.90;;;;;;8385720;28;19923;-69
2023/01/07 09:40:54;;;;;;;;;;;10.70;99.90;;;;;;8385458;28;20344;-69
2023/01/07 09:44:55;;;;;;;;;;;10.80;99.90;;;;;;8381948;28;19924;-69
2023/01/07 09:49:00;;;;;;;;;;;10.80;99.90;;;;;;8387436;28;19934;-69
2023/01/07 09:53:04;;;;;;;;;;;10.80;99.90;;;;;;8373590;28;20007;-69
2023/01/07 09:57:07;;;;;;;;;;;10.90;99.90;;;;;;8379658;28;19928;-69
2023/01/07 10:01:28;;;;;;;;;;;11.00;99.90;;;;;;8351918;28;19924;-69
2023/01/07 10:05:29;;;;;;;;;;;11.00;99.90;;;;;;8377614;28;19925;-69
2023/01/07 10:09:43;;;;;;;;;;;11.00;99.90;;;;;;8383707;28;19979;-69
2023/01/07 10:13:48;;;;;;;;;;;11.10;99.90;;;;;;8381367;28;19925;-69
2023/01/07 10:18:11;;;;;;;;;;;11.10;99.90;;;;;;8383396;28;19968;-69
2023/01/07 10:42:47;;;;;;;;;;;11.30;99.90;;;;;;8385133;28;20374;-69
2023/01/07 10:47:07;;;;;;;;;;;11.40;99.90;;;;;;8364321;28;19928;-69
2023/01/07 10:51:22;;;;;;;;;;;11.60;99.90;;;;;;8388181;28;20295;-69
2023/01/07 10:55:36;;;;;;;;;;;12.00;99.90;;;;;;8391937;28;19929;-69
2023/01/07 10:59:40;;;;;;;;;;;12.40;99.90;;;;;;8389876;28;19968;-69
2023/01/07 11:03:42;;;;;;;;;;;12.80;99.90;;;;;;8389687;28;19924;-69
2023/01/07 11:07:46;;;;;;;;;;;13.10;99.90;;;;;;8393401;28;19975;-70
2023/01/07 11:11:49;;;;;;;;;;;13.40;99.90;;;;;;8391093;28;19929;-70
2023/01/07 11:15:59;;;;;;;;;;;13.50;99.90;;;;;;8382916;28;19925;-69
2023/01/07 11:20:01;;;;;;;;;;;13.40;99.90;;;;;;8395305;28;19947;-69
2023/01/07 11:24:18;;;;;;;;;;;13.10;99.90;;;;;;8369880;28;19929;-69
2023/01/07 11:28:25;;;;;;;;;;;12.80;99.90;;;;;;8365258;28;19935;-70
2023/01/07 11:32:31;;;;;;;;;;;12.70;99.90;;;;;;8391295;28;19979;-69
2023/01/07 11:36:40;;;;;;;;;;;12.60;99.90;;;;;;8366983;28;19932;-70
2023/01/07 11:40:53;;;;;;;;;;;12.80;99.90;;;;;;8390699;28;19960;-69
2023/01/07 11:45:13;;;;;;;;;;;13.10;99.90;;;;;;8384459;28;19970;-69
2023/01/07 11:49:20;;;;;;;;;;;13.50;99.90;;;;;;8375634;28;19924;-70
2023/01/07 11:53:26;;;;;;;;;;;13.90;99.90;;;;;;8387328;28;19925;-70
2023/01/07 11:57:28;;;;;;;;;;;14.50;99.90;;;;;;8389450;28;20307;-69
2023/01/07 12:01:39;;;;;;;;;;;14.90;99.90;;;;;;8385873;28;19925;-70
2023/01/07 12:05:59;;;;;;;;;;;15.10;99.90;;;;;;8395145;28;20008;-69
2023/01/07 12:10:01;;;;;;;;;;;15.00;99.90;;;;;;8382820;28;19993;-69
2023/01/07 12:14:07;;;;;;;;;;;14.80;99.90;;;;;;8393473;28;19924;-70
2023/01/07 12:18:25;;;;;;;;;;;14.60;99.90;;;;;;8382949;28;19932;-69
2023/01/07 12:22:27;;;;;;;;;;;14.10;99.90;;;;;;8385084;28;19969;-70
2023/01/07 12:26:39;;;;;;;;;;;13.80;99.90;;;;;;8378735;28;21025;-69
2023/01/07 12:31:00;;;;;;;;;;;13.50;99.90;;;;;;8366447;28;19932;-69
2023/01/07 12:35:05;;;;;;;;;;;13.20;99.90;;;;;;8367929;28;19928;-69
2023/01/07 12:39:36;;;;;;;;;;;12.90;99.90;;;;;;8376202;28;19940;-69
2023/01/07 12:43:43;;;;;;;;;;;12.80;99.90;;;;;;8369095;28;20471;-69
2023/01/07 12:47:52;;;;;;;;;;;12.80;99.90;;;;;;8372862;28;19924;-70
2023/01/07 12:51:54;;;;;;;;;;;12.80;99.90;;;;;;8373623;28;20011;-69
2023/01/07 12:56:01;;;;;;;;;;;13.00;99.90;;;;;;8378004;28;19924;-70
2023/01/07 13:00:07;;;;;;;;;;;13.20;99.90;;;;;;8396523;28;19929;-69
2023/01/07 13:04:31;;;;;;;;;;;13.40;99.90;;;;;;8387609;28;19931;-69
2023/01/07 13:08:41;;;;;;;;;;;13.40;99.90;;;;;;8341739;28;19935;-69
2023/01/07 13:12:43;;;;;;;;;;;13.40;99.90;;;;;;8398064;28;19929;-70
2023/01/07 13:16:48;;;;;;;;;;;13.40;99.90;;;;;;8382729;28;19928;-70
2023/01/07 13:21:11;;;;;;;;;;;13.30;99.90;;;;;;8388542;28;19935;-70
2023/01/07 13:25:22;;;;;;;;;;;13.30;99.90;;;;;;8385041;28;19925;-70
2023/01/07 13:29:27;;;;;;;;;;;13.10;99.90;;;;;;8369546;28;20256;-69
2023/01/07 13:33:36;;;;;;;;;;;13.00;99.90;;;;;;8365222;28;19971;-70
2023/01/07 13:37:57;;;;;;;;;;;12.80;99.90;;;;;;8373138;28;20426;-70
2023/01/07 13:42:05;;;;;;;;;;;12.70;99.90;;;;;;8383118;28;19974;-70
2023/01/07 13:46:11;;;;;;;;;;;12.70;99.90;;;;;;8376204;28;21018;-70
2023/01/07 13:50:17;;;;;;;;;;;12.70;99.90;;;;;;8384360;28;19928;-69
2023/01/07 13:54:37;;;;;;;;;;;12.70;99.90;;;;;;8384035;28;19935;-69
2023/01/07 13:58:43;;;;;;;;;;;12.60;99.90;;;;;;8389731;28;19925;-69
2023/01/07 14:02:55;;;;;;;;;;;12.60;99.90;;;;;;8389495;28;19935;-69
2023/01/07 14:06:59;;;;;;;;;;;12.60;99.90;;;;;;8388556;28;19975;-70
2023/01/07 14:11:00;;;;;;;;;;;12.60;99.90;;;;;;8384993;28;20366;-70
2023/01/07 14:15:02;;;;;;;;;;;12.50;99.90;;;;;;8385506;28;20277;-70
2023/01/07 14:19:15;;;;;;;;;;;12.40;99.90;;;;;;8378264;28;19947;-70
2023/01/07 14:23:40;;;;;;;;;;;12.30;99.90;;;;;;8381068;28;20023;-70
2023/01/07 14:27:41;;;;;;;;;;;12.20;99.90;;;;;;8381700;28;19975;-70
2023/01/07 14:31:43;;;;;;;;;;;12.10;99.90;;;;;;8383484;28;19925;-70
2023/01/07 14:35:52;;;;;;;;;;;12.00;99.90;;;;;;8387635;28;20035;-70
2023/01/07 14:39:54;;;;;;;;;;;12.00;99.90;;;;;;8365310;28;19925;-69
2023/01/07 14:44:01;;;;;;;;;;;12.00;99.90;;;;;;8382415;28;19931;-69
2023/01/07 14:48:11;;;;;;;;;;;12.00;99.90;;;;;;8378499;28;20407;-70
2023/01/07 14:52:19;;;;;;;;;;;11.90;99.90;;;;;;8374356;28;20295;-70
2023/01/07 14:56:26;;;;;;;;;;;11.90;99.90;;;;;;8381385;28;19936;-69
2023/01/07 15:00:39;;;;;;;;;;;11.90;99.90;;;;;;8399540;28;20375;-70
2023/01/07 15:04:59;;;;;;;;;;;11.80;99.90;;;;;;8364436;28;19932;-69
2023/01/07 15:17:41;;;;;;;;;;;11.80;99.90;;;;;;8383619;28;19924;-69
2023/01/07 15:21:53;;;;;;;;;;;11.80;99.90;;;;;;8387724;28;20436;-70
2023/01/07 15:26:00;;;;;;;;;;;11.80;99.90;;;;;;8382876;28;20015;-70
2023/01/07 15:30:15;;;;;;;;;;;11.80;99.90;;;;;;8389472;28;19995;-70
2023/01/07 15:34:18;;;;;;;;;;;11.80;99.90;;;;;;8378623;28;19947;-69
2023/01/07 15:38:38;;;;;;;;;;;11.70;99.90;;;;;;8382603;28;20384;-70
2023/01/07 15:42:43;;;;;;;;;;;11.70;99.90;;;;;;8378465;28;19932;-70
2023/01/07 15:46:45;;;;;;;;;;;11.70;99.90;;;;;;8360825;28;20304;-70
2023/01/07 15:50:47;;;;;;;;;;;11.60;99.90;;;;;;8385989;28;20005;-69
2023/01/07 15:54:48;;;;;;;;;;;11.60;99.90;;;;;;8387022;28;19925;-69
2023/01/07 15:58:50;;;;;;;;;;;11.60;99.90;;;;;;8379599;28;19924;-69
2023/01/07 16:02:52;;;;;;;;;;;11.60;99.90;;;;;;8391894;28;19929;-69
2023/01/07 16:06:54;;;;;;;;;;;11.50;99.90;;;;;;8394706;28;19936;-69
2023/01/07 16:11:03;;;;;;;;;;;11.50;99.90;;;;;;8384029;28;19935;-69
2023/01/07 16:15:23;;;;;;;;;;;11.50;99.90;;;;;;8389619;28;19924;-69
2023/01/07 16:19:24;;;;;;;;;;;11.50;99.90;;;;;;8384941;28;19925;-69
2023/01/07 16:23:27;;;;;;;;;;;11.50;99.90;;;;;;8378179;28;20444;-69
2023/01/07 16:27:30;;;;;;;;;;;11.40;99.90;;;;;;8373435;28;19929;-69
2023/01/07 16:31:33;;;;;;;;;;;11.40;99.90;;;;;;8378214;28;19932;-69
2023/01/07 16:35:36;;;;;;;;;;;11.30;99.90;;;;;;8385695;28;20376;-69
2023/01/07 16:39:41;;;;;;;;;;;11.20;99.90;;;;;;8379268;28;19932;-69
2023/01/07 16:43:43;;;;;;;;;;;11.00;99.90;;;;;;8387017;28;19924;-69
2023/01/07 16:47:57;;;;;;;;;;;11.00;99.90;;;;;;8374907;28;20414;-69
2023/01/07 16:52:01;;;;;;;;;;;11.00;99.90;;;;;;8382897;28;19956;-69
2023/01/07 16:56:07;;;;;;;;;;;11.00;99.90;;;;;;8371505;28;20294;-69
2023/01/07 17:00:16;;;;;;;;;;;10.90;99.90;;;;;;8369118;28;19932;-69
2023/01/07 17:04:28;;;;;;;;;;;10.80;99.90;;;;;;8382729;28;19983;-69
2023/01/07 17:08:31;;;;;;;;;;;10.60;99.90;;;;;;8379930;28;19971;-69
2023/01/07 17:12:35;;;;;;;;;;;10.40;99.90;;;;;;8379882;28;19924;-69
2023/01/07 17:16:37;;;;;;;;;;;10.30;99.90;;;;;;8353904;28;19936;-69
2023/01/07 17:20:41;;;;;;;;;;;10.20;99.90;;;;;;8390198;28;20882;-69
2023/01/07 17:24:45;;;;;;;;;;;10.10;99.90;;;;;;8383046;28;19976;-69
2023/01/07 17:28:53;;;;;;;;;;;10.10;99.90;;;;;;8376987;28;19944;-68
2023/01/07 17:32:55;;;;;;;;;;;10.00;99.90;;;;;;8378808;28;19928;-69
2023/01/07 17:36:56;;;;;;;;;;;10.00;99.90;;;;;;8387212;28;19928;-69
2023/01/07 17:40:59;;;;;;;;;;;10.10;99.90;;;;;;8385063;28;19939;-69
2023/01/07 17:45:01;;;;;;;;;;;10.10;99.90;;;;;;8384418;28;19944;-69
2023/01/07 17:49:02;;;;;;;;;;;10.20;99.90;;;;;;8371208;28;19932;-69
2023/01/07 17:53:04;;;;;;;;;;;10.20;99.90;;;;;;8382778;28;19924;-69
2023/01/07 17:57:07;;;;;;;;;;;10.20;99.90;;;;;;8390059;28;19947;-69
2023/01/07 18:01:10;;;;;;;;;;;10.20;99.90;;;;;;8386883;28;19951;-69
2023/01/07 18:05:14;;;;;;;;;;;10.30;99.90;;;;;;8387634;28;19931;-69
2023/01/07 18:09:15;;;;;;;;;;;10.20;99.90;;;;;;8384937;28;19974;-69
2023/01/07 18:13:17;;;;;;;;;;;10.20;99.90;;;;;;8373504;28;19924;-69
2023/01/07 18:17:19;;;;;;;;;;;10.20;99.90;;;;;;8365279;28;20596;-69
2023/01/07 18:21:21;;;;;;;;;;;10.20;99.90;;;;;;8389218;28;19925;-69
2023/01/07 18:25:23;;;;;;;;;;;10.10;99.90;;;;;;8389121;28;20411;-69
2023/01/07 18:29:24;;;;;;;;;;;10.10;99.90;;;;;;8383482;28;19968;-69
2023/01/07 18:33:29;;;;;;;;;;;10.10;99.90;;;;;;8367556;28;19975;-69
2023/01/07 18:37:31;;;;;;;;;;;10.10;99.90;;;;;;8387465;28;20379;-69
2023/01/07 18:41:32;;;;;;;;;;;10.10;99.90;;;;;;8376356;28;19932;-69
2023/01/07 18:45:34;;;;;;;;;;;10.10;99.90;;;;;;8382274;28;19925;-69
2023/01/07 18:49:36;;;;;;;;;;;10.10;99.90;;;;;;8378686;28;19924;-69
2023/01/07 18:53:38;;;;;;;;;;;10.10;99.90;;;;;;8379620;28;22130;-69
2023/01/07 18:57:39;;;;;;;;;;;10.00;99.90;;;;;;8373926;28;19924;-69
2023/01/07 19:01:41;;;;;;;;;;;10.00;99.90;;;;;;8387189;28;19932;-69
2023/01/07 19:05:44;;;;;;;;;;;9.90;99.90;;;;;;8394841;28;19978;-69
2023/01/07 19:19:53;;;;;;;;;;;10.00;99.90;;;;;;8381762;28;19924;-69
2023/01/07 19:23:55;;;;;;;;;;;10.10;99.90;;;;;;8379158;28;19977;-69
2023/01/07 19:27:57;;;;;;;;;;;10.10;99.90;;;;;;8381007;28;19930;-69
2023/01/07 19:31:59;;;;;;;;;;;10.10;99.90;;;;;;8368301;28;19925;-69
2023/01/07 19:36:01;;;;;;;;;;;10.10;99.90;;;;;;8386622;28;19971;-69
2023/01/07 19:40:04;;;;;;;;;;;10.10;99.90;;;;;;8393405;28;20406;-69
2023/01/07 19:44:11;;;;;;;;;;;10.20;99.90;;;;;;8384396;28;20334;-69
2023/01/07 19:48:12;;;;;;;;;;;10.20;99.90;;;;;;8370885;28;20007;-69
2023/01/07 19:52:14;;;;;;;;;;;10.20;99.90;;;;;;8390568;28;19924;-69
2023/01/07 19:56:16;;;;;;;;;;;10.20;99.90;;;;;;8385278;28;20385;-69
2023/01/07 20:00:19;;;;;;;;;;;10.20;99.90;;;;;;8393709;28;19931;-69
2023/01/07 20:04:26;;;;;;;;;;;10.20;99.90;;;;;;8395891;28;20387;-69
2023/01/07 20:08:28;;;;;;;;;;;10.20;99.90;;;;;;8387938;28;19969;-69
2023/01/07 20:12:30;;;;;;;;;;;10.30;99.90;;;;;;8392286;28;19932;-69
2023/01/07 20:16:34;;;;;;;;;;;10.30;99.90;;;;;;8386013;28;19968;-69
2023/01/07 20:20:36;;;;;;;;;;;10.30;99.90;;;;;;8376906;28;20319;-69
2023/01/07 20:24:45;;;;;;;;;;;10.30;99.90;;;;;;8394128;28;19932;-69
2023/01/07 20:28:47;;;;;;;;;;;10.30;99.90;;;;;;8397999;28;19932;-68
2023/01/07 20:32:49;;;;;;;;;;;10.30;99.90;;;;;;8384303;28;20327;-68
2023/01/07 20:36:51;;;;;;;;;;;10.30;99.90;;;;;;8385321;28;20357;-69
2023/01/07 20:40:52;;;;;;;;;;;10.20;99.90;;;;;;8369964;28;19929;-69
2023/01/07 20:44:54;;;;;;;;;;;10.10;99.90;;;;;;8386492;28;20307;-69
2023/01/07 20:48:56;;;;;;;;;;;10.00;99.90;;;;;;8394253;28;19928;-69
2023/01/07 20:52:58;;;;;;;;;;;10.00;99.90;;;;;;8373001;28;19925;-69
2023/01/07 20:56:59;;;;;;;;;;;10.00;99.90;;;;;;8385855;28;19943;-69
2023/01/07 21:01:02;;;;;;;;;;;10.00;99.90;;;;;;8392545;28;20303;-69
2023/01/07 21:05:05;;;;;;;;;;;10.00;99.90;;;;;;8391180;28;19924;-69
2023/01/07 21:09:06;;;;;;;;;;;10.10;99.90;;;;;;8394515;28;20390;-69
2023/01/07 21:13:08;;;;;;;;;;;10.10;99.90;;;;;;8370590;28;19924;-69
2023/01/07 21:17:10;;;;;;;;;;;10.20;99.90;;;;;;8382791;28;19944;-69
2023/01/07 21:21:13;;;;;;;;;;;10.20;99.90;;;;;;8375818;28;19925;-69
2023/01/07 21:25:15;;;;;;;;;;;10.30;99.90;;;;;;8402129;28;19936;-69
2023/01/07 21:29:17;;;;;;;;;;;10.30;99.90;;;;;;8379593;28;19925;-69
2023/01/07 21:33:18;;;;;;;;;;;10.40;99.90;;;;;;8398558;28;19925;-69
2023/01/07 21:37:26;;;;;;;;;;;10.40;99.90;;;;;;8388253;28;19925;-69
2023/01/07 21:41:30;;;;;;;;;;;10.40;99.90;;;;;;8362098;28;20342;-69
2023/01/07 21:45:31;;;;;;;;;;;10.40;99.90;;;;;;8383767;28;19934;-69
2023/01/07 21:49:33;;;;;;;;;;;10.50;99.90;;;;;;8387637;28;19924;-69
2023/01/07 21:53:35;;;;;;;;;;;10.50;99.90;;;;;;8390609;28;19924;-69
2023/01/07 21:57:39;;;;;;;;;;;10.50;99.90;;;;;;8386730;28;20548;-69
2023/01/07 22:01:41;;;;;;;;;;;10.50;99.90;;;;;;8385344;28;20368;-69
2023/01/07 22:05:43;;;;;;;;;;;10.50;99.90;;;;;;8371929;28;19938;-68
2023/01/07 22:09:44;;;;;;;;;;;10.50;99.90;;;;;;8383473;28;20022;-69
2023/01/07 22:13:50;;;;;;;;;;;10.50;99.90;;;;;;8370845;28;19963;-69
2023/01/07 22:17:52;;;;;;;;;;;10.50;99.90;;;;;;8393819;28;19924;-69
2023/01/07 22:21:54;;;;;;;;;;;10.50;99.90;;;;;;8390315;28;19925;-69
2023/01/07 22:26:00;;;;;;;;;;;10.50;99.90;;;;;;8377636;28;19974;-68
2023/01/07 22:30:02;;;;;;;;;;;10.50;99.90;;;;;;8381501;28;20233;-68
2023/01/07 22:34:05;;;;;;;;;;;10.60;99.90;;;;;;8378698;28;19925;-69
2023/01/07 22:38:06;;;;;;;;;;;10.60;99.90;;;;;;8385352;28;20019;-69
2023/01/07 22:42:15;;;;;;;;;;;10.60;99.90;;;;;;8388429;28;20276;-69
2023/01/07 22:46:20;;;;;;;;;;;10.70;99.90;;;;;;8320159;28;19925;-69
2023/01/07 22:50:22;;;;;;;;;;;10.70;99.90;;;;;;8324406;28;20269;-68
2023/01/07 22:54:24;;;;;;;;;;;10.70;99.90;;;;;;8316223;28;19925;-68
2023/01/07 22:58:26;;;;;;;;;;;10.70;99.90;;;;;;8317412;28;19929;-69
2023/01/07 23:02:27;;;;;;;;;;;10.70;99.90;;;;;;8318829;28;19925;-69
2023/01/07 23:06:29;;;;;;;;;;;10.70;99.90;;;;;;8319422;28;19925;-68
2023/01/07 23:10:31;;;;;;;;;;;10.60;99.90;;;;;;8324669;28;20406;-69
2023/01/07 23:14:32;;;;;;;;;;;10.60;99.90;;;;;;8325094;28;19929;-69
2023/01/07 23:18:34;;;;;;;;;;;10.60;99.90;;;;;;8322479;28;20400;-68
2023/01/07 23:22:36;;;;;;;;;;;10.60;99.90;;;;;;8324581;28;20316;-68
2023/01/07 23:26:37;;;;;;;;;;;10.60;99.90;;;;;;8335583;28;19925;-69
2023/01/07 23:30:39;;;;;;;;;;;10.60;99.90;;;;;;8330507;28;20012;-69
2023/01/07 23:34:41;;;;;;;;;;;10.60;99.90;;;;;;8325375;28;19971;-69
2023/01/07 23:38:42;;;;;;;;;;;10.60;99.90;;;;;;8325982;28;19972;-69
2023/01/07 23:42:44;;;;;;;;;;;10.60;99.90;;;;;;8330916;28;20429;-69
2023/01/07 23:46:46;;;;;;;;;;;10.60;99.90;;;;;;8385065;28;19938;-69
2023/01/07 23:50:48;;;;;;;;;;;10.60;99.90;;;;;;8394592;28;19972;-69
2023/01/07 23:54:49;;;;;;;;;;;10.60;99.90;;;;;;8379559;28;20307;-68
2023/01/07 23:58:51;;;;;;;;;;;10.50;99.90;;;;;;8397615;28;19931;-68
